sensor_id;sensor_type;location;lat;lon;timestamp;P1;durP1;ratioP1;P2;durP2;ratioP2
69789;SDS011;57064;52.046;4.800;2023-04-15T00:01:42;8.95;;;5.28;;
69789;SDS011;57064;52.046;4.800;2023-04-15T00:04:09;9.13;;;5.22;;
69789;SDS011;57064;52.046;4.800;2023-04-15T00:06:35;9.05;;;5.25;;
69789;SDS011;57064;52.046;4.800;2023-04-15T00:09:03;10.73;;;5.80;;
69789;SDS011;57064;52.046;4.800;2023-04-15T00:11:29;12.93;;;5.85;;
69789;SDS011;57064;52.046;4.800;2023-04-15T00:13:55;7.47;;;5.18;;
69789;SDS011;57064;52.046;4.800;2023-04-15T00:16:22;7.93;;;5.18;;
69789;SDS011;57064;52.046;4.800;2023-04-15T00:18:48;15.75;;;7.22;;
69789;SDS011;57064;52.046;4.800;2023-04-15T00:21:15;9.48;;;5.35;;
69789;SDS011;57064;52.046;4.800;2023-04-15T00:23:41;9.23;;;5.90;;
69789;SDS011;57064;52.046;4.800;2023-04-15T00:26:08;10.98;;;6.15;;
69789;SDS011;57064;52.046;4.800;2023-04-15T00:28:34;9.68;;;5.55;;
69789;SDS011;57064;52.046;4.800;2023-04-15T00:31:00;11.68;;;5.97;;
69789;SDS011;57064;52.046;4.800;2023-04-15T00:33:26;13.80;;;6.38;;
69789;SDS011;57064;52.046;4.800;2023-04-15T00:35:52;10.98;;;5.75;;
69789;SDS011;57064;52.046;4.800;2023-04-15T00:38:18;12.40;;;5.43;;
69789;SDS011;57064;52.046;4.800;2023-04-15T00:40:44;16.27;;;6.05;;
69789;SDS011;57064;52.046;4.800;2023-04-15T00:43:10;14.25;;;5.95;;
69789;SDS011;57064;52.046;4.800;2023-04-15T00:45:36;9.27;;;4.80;;
69789;SDS011;57064;52.046;4.800;2023-04-15T00:48:02;9.95;;;6.03;;
69789;SDS011;57064;52.046;4.800;2023-04-15T00:50:29;9.70;;;5.63;;
69789;SDS011;57064;52.046;4.800;2023-04-15T00:52:55;11.90;;;6.20;;
69789;SDS011;57064;52.046;4.800;2023-04-15T00:55:21;12.68;;;6.00;;
69789;SDS011;57064;52.046;4.800;2023-04-15T00:57:48;10.60;;;5.50;;
69789;SDS011;57064;52.046;4.800;2023-04-15T01:00:14;8.23;;;5.30;;
69789;SDS011;57064;52.046;4.800;2023-04-15T01:02:40;9.88;;;5.47;;
69789;SDS011;57064;52.046;4.800;2023-04-15T01:05:06;9.50;;;5.32;;
69789;SDS011;57064;52.046;4.800;2023-04-15T01:07:33;8.35;;;5.90;;
69789;SDS011;57064;52.046;4.800;2023-04-15T01:09:59;12.20;;;5.53;;
69789;SDS011;57064;52.046;4.800;2023-04-15T01:12:27;14.30;;;6.40;;
69789;SDS011;57064;52.046;4.800;2023-04-15T01:14:54;11.48;;;5.45;;
69789;SDS011;57064;52.046;4.800;2023-04-15T01:17:21;13.05;;;6.63;;
69789;SDS011;57064;52.046;4.800;2023-04-15T01:19:48;10.25;;;6.20;;
69789;SDS011;57064;52.046;4.800;2023-04-15T01:22:15;11.90;;;5.75;;
69789;SDS011;57064;52.046;4.800;2023-04-15T01:24:43;10.90;;;6.38;;
69789;SDS011;57064;52.046;4.800;2023-04-15T01:27:26;11.63;;;6.05;;
69789;SDS011;57064;52.046;4.800;2023-04-15T01:29:52;12.02;;;6.20;;
69789;SDS011;57064;52.046;4.800;2023-04-15T01:32:18;10.02;;;6.63;;
69789;SDS011;57064;52.046;4.800;2023-04-15T01:34:44;10.75;;;6.05;;
69789;SDS011;57064;52.046;4.800;2023-04-15T01:37:10;11.23;;;6.53;;
69789;SDS011;57064;52.046;4.800;2023-04-15T01:39:36;11.77;;;6.80;;
69789;SDS011;57064;52.046;4.800;2023-04-15T01:42:03;11.20;;;6.07;;
69789;SDS011;57064;52.046;4.800;2023-04-15T01:44:29;10.73;;;6.25;;
69789;SDS011;57064;52.046;4.800;2023-04-15T01:46:55;8.98;;;5.95;;
69789;SDS011;57064;52.046;4.800;2023-04-15T01:49:21;11.40;;;6.00;;
69789;SDS011;57064;52.046;4.800;2023-04-15T01:51:47;10.20;;;6.15;;
69789;SDS011;57064;52.046;4.800;2023-04-15T01:54:14;11.88;;;5.90;;
69789;SDS011;57064;52.046;4.800;2023-04-15T01:56:40;11.20;;;6.13;;
69789;SDS011;57064;52.046;4.800;2023-04-15T01:59:06;11.90;;;6.45;;
69789;SDS011;57064;52.046;4.800;2023-04-15T02:01:32;20.92;;;7.97;;
69789;SDS011;57064;52.046;4.800;2023-04-15T02:03:58;12.43;;;6.20;;
69789;SDS011;57064;52.046;4.800;2023-04-15T02:06:25;12.27;;;6.38;;
69789;SDS011;57064;52.046;4.800;2023-04-15T02:08:52;12.25;;;6.40;;
69789;SDS011;57064;52.046;4.800;2023-04-15T02:11:18;11.60;;;6.30;;
69789;SDS011;57064;52.046;4.800;2023-04-15T02:13:44;11.75;;;6.20;;
69789;SDS011;57064;52.046;4.800;2023-04-15T02:16:19;8.88;;;5.35;;
69789;SDS011;57064;52.046;4.800;2023-04-15T02:18:45;9.60;;;5.78;;
69789;SDS011;57064;52.046;4.800;2023-04-15T02:21:12;10.20;;;5.43;;
69789;SDS011;57064;52.046;4.800;2023-04-15T02:23:38;11.02;;;6.10;;
69789;SDS011;57064;52.046;4.800;2023-04-15T02:26:04;10.32;;;5.80;;
69789;SDS011;57064;52.046;4.800;2023-04-15T02:28:31;12.18;;;5.95;;
69789;SDS011;57064;52.046;4.800;2023-04-15T02:30:57;8.90;;;5.40;;
69789;SDS011;57064;52.046;4.800;2023-04-15T02:33:23;8.95;;;5.03;;
69789;SDS011;57064;52.046;4.800;2023-04-15T02:35:49;14.15;;;6.20;;
69789;SDS011;57064;52.046;4.800;2023-04-15T02:38:17;9.80;;;6.07;;
69789;SDS011;57064;52.046;4.800;2023-04-15T02:40:43;10.85;;;5.72;;
69789;SDS011;57064;52.046;4.800;2023-04-15T02:43:09;8.75;;;5.13;;
69789;SDS011;57064;52.046;4.800;2023-04-15T02:45:35;10.32;;;5.53;;
69789;SDS011;57064;52.046;4.800;2023-04-15T02:48:01;10.45;;;6.18;;
69789;SDS011;57064;52.046;4.800;2023-04-15T02:50:30;10.25;;;6.05;;
69789;SDS011;57064;52.046;4.800;2023-04-15T02:52:56;12.10;;;6.72;;
69789;SDS011;57064;52.046;4.800;2023-04-15T02:55:22;13.40;;;6.43;;
69789;SDS011;57064;52.046;4.800;2023-04-15T02:57:48;12.15;;;6.05;;
69789;SDS011;57064;52.046;4.800;2023-04-15T03:00:14;13.85;;;7.45;;
69789;SDS011;57064;52.046;4.800;2023-04-15T03:02:40;9.45;;;6.38;;
69789;SDS011;57064;52.046;4.800;2023-04-15T03:05:10;13.98;;;6.93;;
69789;SDS011;57064;52.046;4.800;2023-04-15T03:07:37;10.18;;;6.60;;
69789;SDS011;57064;52.046;4.800;2023-04-15T03:10:05;11.40;;;6.22;;
69789;SDS011;57064;52.046;4.800;2023-04-15T03:12:32;15.30;;;6.85;;
69789;SDS011;57064;52.046;4.800;2023-04-15T03:14:58;11.07;;;6.38;;
69789;SDS011;57064;52.046;4.800;2023-04-15T03:17:26;13.57;;;6.57;;
69789;SDS011;57064;52.046;4.800;2023-04-15T03:19:52;9.88;;;6.50;;
69789;SDS011;57064;52.046;4.800;2023-04-15T03:22:18;9.93;;;5.85;;
69789;SDS011;57064;52.046;4.800;2023-04-15T03:24:44;11.07;;;6.57;;
69789;SDS011;57064;52.046;4.800;2023-04-15T03:27:10;12.85;;;6.95;;
69789;SDS011;57064;52.046;4.800;2023-04-15T03:29:37;12.27;;;6.70;;
69789;SDS011;57064;52.046;4.800;2023-04-15T03:32:03;12.75;;;6.65;;
69789;SDS011;57064;52.046;4.800;2023-04-15T03:34:29;11.70;;;6.57;;
69789;SDS011;57064;52.046;4.800;2023-04-15T03:36:56;21.38;;;7.40;;
69789;SDS011;57064;52.046;4.800;2023-04-15T03:39:22;10.60;;;6.65;;
69789;SDS011;57064;52.046;4.800;2023-04-15T03:41:48;12.50;;;6.70;;
69789;SDS011;57064;52.046;4.800;2023-04-15T03:44:14;11.18;;;6.88;;
69789;SDS011;57064;52.046;4.800;2023-04-15T03:46:40;11.48;;;6.80;;
69789;SDS011;57064;52.046;4.800;2023-04-15T03:49:06;12.65;;;7.20;;
69789;SDS011;57064;52.046;4.800;2023-04-15T03:51:32;12.70;;;7.07;;
69789;SDS011;57064;52.046;4.800;2023-04-15T03:53:59;13.90;;;7.15;;
69789;SDS011;57064;52.046;4.800;2023-04-15T03:56:26;12.85;;;7.22;;
69789;SDS011;57064;52.046;4.800;2023-04-15T03:58:52;14.57;;;7.05;;
69789;SDS011;57064;52.046;4.800;2023-04-15T04:01:18;9.50;;;6.20;;
69789;SDS011;57064;52.046;4.800;2023-04-15T04:03:44;12.60;;;7.13;;
69789;SDS011;57064;52.046;4.800;2023-04-15T04:06:10;14.35;;;7.22;;
69789;SDS011;57064;52.046;4.800;2023-04-15T04:08:36;12.93;;;7.55;;
69789;SDS011;57064;52.046;4.800;2023-04-15T04:11:02;14.80;;;7.50;;
69789;SDS011;57064;52.046;4.800;2023-04-15T04:13:29;13.48;;;7.30;;
69789;SDS011;57064;52.046;4.800;2023-04-15T04:15:55;11.43;;;6.95;;
69789;SDS011;57064;52.046;4.800;2023-04-15T04:18:21;14.75;;;7.20;;
69789;SDS011;57064;52.046;4.800;2023-04-15T04:20:47;13.38;;;7.32;;
69789;SDS011;57064;52.046;4.800;2023-04-15T04:23:13;14.00;;;7.07;;
69789;SDS011;57064;52.046;4.800;2023-04-15T04:25:39;16.90;;;8.00;;
69789;SDS011;57064;52.046;4.800;2023-04-15T04:28:06;13.70;;;6.80;;
69789;SDS011;57064;52.046;4.800;2023-04-15T04:30:32;14.00;;;6.82;;
69789;SDS011;57064;52.046;4.800;2023-04-15T04:32:59;13.57;;;7.38;;
69789;SDS011;57064;52.046;4.800;2023-04-15T04:35:25;15.15;;;8.02;;
69789;SDS011;57064;52.046;4.800;2023-04-15T04:37:51;17.58;;;8.07;;
69789;SDS011;57064;52.046;4.800;2023-04-15T04:40:17;14.05;;;7.68;;
69789;SDS011;57064;52.046;4.800;2023-04-15T04:42:44;12.60;;;7.00;;
69789;SDS011;57064;52.046;4.800;2023-04-15T04:45:10;13.05;;;7.30;;
69789;SDS011;57064;52.046;4.800;2023-04-15T04:47:37;12.57;;;7.03;;
69789;SDS011;57064;52.046;4.800;2023-04-15T04:50:03;12.77;;;7.78;;
69789;SDS011;57064;52.046;4.800;2023-04-15T04:52:30;13.48;;;6.75;;
69789;SDS011;57064;52.046;4.800;2023-04-15T04:54:56;13.63;;;7.38;;
69789;SDS011;57064;52.046;4.800;2023-04-15T04:57:22;13.23;;;7.38;;
69789;SDS011;57064;52.046;4.800;2023-04-15T04:59:48;17.45;;;8.05;;
69789;SDS011;57064;52.046;4.800;2023-04-15T05:02:14;15.07;;;7.93;;
69789;SDS011;57064;52.046;4.800;2023-04-15T05:04:40;16.23;;;8.02;;
69789;SDS011;57064;52.046;4.800;2023-04-15T05:07:06;13.27;;;8.35;;
69789;SDS011;57064;52.046;4.800;2023-04-15T05:09:32;19.38;;;8.00;;
69789;SDS011;57064;52.046;4.800;2023-04-15T05:12:00;12.13;;;7.68;;
69789;SDS011;57064;52.046;4.800;2023-04-15T05:14:26;20.08;;;7.70;;
69789;SDS011;57064;52.046;4.800;2023-04-15T05:16:52;16.73;;;8.30;;
69789;SDS011;57064;52.046;4.800;2023-04-15T05:19:18;11.65;;;6.22;;
69789;SDS011;57064;52.046;4.800;2023-04-15T05:21:44;18.27;;;7.32;;
69789;SDS011;57064;52.046;4.800;2023-04-15T05:24:10;14.20;;;8.25;;
69789;SDS011;57064;52.046;4.800;2023-04-15T05:26:36;14.05;;;7.68;;
69789;SDS011;57064;52.046;4.800;2023-04-15T05:29:02;15.07;;;7.53;;
69789;SDS011;57064;52.046;4.800;2023-04-15T05:31:28;12.73;;;7.28;;
69789;SDS011;57064;52.046;4.800;2023-04-15T05:33:54;17.20;;;7.97;;
69789;SDS011;57064;52.046;4.800;2023-04-15T05:36:20;15.75;;;7.55;;
69789;SDS011;57064;52.046;4.800;2023-04-15T05:38:46;15.90;;;8.23;;
69789;SDS011;57064;52.046;4.800;2023-04-15T05:41:12;17.13;;;8.10;;
69789;SDS011;57064;52.046;4.800;2023-04-15T05:43:39;15.88;;;7.93;;
69789;SDS011;57064;52.046;4.800;2023-04-15T05:46:05;15.02;;;8.43;;
69789;SDS011;57064;52.046;4.800;2023-04-15T05:48:32;12.25;;;7.15;;
69789;SDS011;57064;52.046;4.800;2023-04-15T05:50:59;16.48;;;8.30;;
69789;SDS011;57064;52.046;4.800;2023-04-15T05:53:25;16.60;;;8.60;;
69789;SDS011;57064;52.046;4.800;2023-04-15T05:55:51;16.88;;;8.75;;
69789;SDS011;57064;52.046;4.800;2023-04-15T05:58:17;13.23;;;8.07;;
69789;SDS011;57064;52.046;4.800;2023-04-15T06:00:43;17.13;;;8.55;;
69789;SDS011;57064;52.046;4.800;2023-04-15T06:03:10;19.30;;;7.95;;
69789;SDS011;57064;52.046;4.800;2023-04-15T06:05:36;16.48;;;8.07;;
69789;SDS011;57064;52.046;4.800;2023-04-15T06:08:02;14.60;;;7.47;;
69789;SDS011;57064;52.046;4.800;2023-04-15T06:10:28;14.05;;;7.25;;
69789;SDS011;57064;52.046;4.800;2023-04-15T06:12:55;14.57;;;7.88;;
69789;SDS011;57064;52.046;4.800;2023-04-15T06:15:21;13.52;;;7.68;;
69789;SDS011;57064;52.046;4.800;2023-04-15T06:17:47;15.02;;;8.00;;
69789;SDS011;57064;52.046;4.800;2023-04-15T06:20:13;15.18;;;8.10;;
69789;SDS011;57064;52.046;4.800;2023-04-15T06:22:40;14.85;;;7.80;;
69789;SDS011;57064;52.046;4.800;2023-04-15T06:25:06;14.05;;;7.95;;
69789;SDS011;57064;52.046;4.800;2023-04-15T06:27:33;15.95;;;7.72;;
69789;SDS011;57064;52.046;4.800;2023-04-15T06:30:00;15.10;;;8.18;;
69789;SDS011;57064;52.046;4.800;2023-04-15T06:32:26;16.63;;;7.70;;
69789;SDS011;57064;52.046;4.800;2023-04-15T06:34:52;15.75;;;8.77;;
69789;SDS011;57064;52.046;4.800;2023-04-15T06:37:19;13.45;;;8.05;;
69789;SDS011;57064;52.046;4.800;2023-04-15T06:39:46;11.57;;;7.13;;
69789;SDS011;57064;52.046;4.800;2023-04-15T06:42:12;13.20;;;7.82;;
69789;SDS011;57064;52.046;4.800;2023-04-15T06:44:39;13.90;;;7.78;;
69789;SDS011;57064;52.046;4.800;2023-04-15T06:47:06;13.32;;;7.80;;
69789;SDS011;57064;52.046;4.800;2023-04-15T06:49:33;13.85;;;7.95;;
69789;SDS011;57064;52.046;4.800;2023-04-15T06:51:59;16.70;;;8.20;;
69789;SDS011;57064;52.046;4.800;2023-04-15T06:54:25;13.57;;;7.72;;
69789;SDS011;57064;52.046;4.800;2023-04-15T06:56:51;15.93;;;6.88;;
69789;SDS011;57064;52.046;4.800;2023-04-15T06:59:17;12.43;;;6.82;;
69789;SDS011;57064;52.046;4.800;2023-04-15T07:01:45;13.88;;;7.00;;
69789;SDS011;57064;52.046;4.800;2023-04-15T07:04:11;12.20;;;7.20;;
69789;SDS011;57064;52.046;4.800;2023-04-15T07:06:37;12.27;;;6.85;;
69789;SDS011;57064;52.046;4.800;2023-04-15T07:09:03;13.10;;;7.10;;
69789;SDS011;57064;52.046;4.800;2023-04-15T07:11:30;14.98;;;7.90;;
69789;SDS011;57064;52.046;4.800;2023-04-15T07:13:57;15.00;;;7.47;;
69789;SDS011;57064;52.046;4.800;2023-04-15T07:16:23;14.43;;;7.28;;
69789;SDS011;57064;52.046;4.800;2023-04-15T07:18:49;14.20;;;7.85;;
69789;SDS011;57064;52.046;4.800;2023-04-15T07:21:15;14.88;;;8.18;;
69789;SDS011;57064;52.046;4.800;2023-04-15T07:23:41;13.25;;;6.93;;
69789;SDS011;57064;52.046;4.800;2023-04-15T07:26:08;11.23;;;6.88;;
69789;SDS011;57064;52.046;4.800;2023-04-15T07:28:35;14.70;;;7.47;;
69789;SDS011;57064;52.046;4.800;2023-04-15T07:31:01;13.68;;;7.07;;
69789;SDS011;57064;52.046;4.800;2023-04-15T07:33:27;13.35;;;7.05;;
69789;SDS011;57064;52.046;4.800;2023-04-15T07:35:53;14.35;;;6.75;;
69789;SDS011;57064;52.046;4.800;2023-04-15T07:38:19;12.45;;;6.68;;
69789;SDS011;57064;52.046;4.800;2023-04-15T07:40:45;12.10;;;6.75;;
69789;SDS011;57064;52.046;4.800;2023-04-15T07:43:12;13.45;;;6.70;;
69789;SDS011;57064;52.046;4.800;2023-04-15T07:45:38;11.35;;;5.80;;
69789;SDS011;57064;52.046;4.800;2023-04-15T07:48:04;9.77;;;6.05;;
69789;SDS011;57064;52.046;4.800;2023-04-15T07:50:30;10.55;;;6.05;;
69789;SDS011;57064;52.046;4.800;2023-04-15T07:52:56;13.45;;;7.05;;
69789;SDS011;57064;52.046;4.800;2023-04-15T07:55:23;12.65;;;6.78;;
69789;SDS011;57064;52.046;4.800;2023-04-15T07:57:49;10.75;;;5.68;;
69789;SDS011;57064;52.046;4.800;2023-04-15T08:00:15;11.18;;;5.65;;
69789;SDS011;57064;52.046;4.800;2023-04-15T08:02:42;11.07;;;5.82;;
69789;SDS011;57064;52.046;4.800;2023-04-15T08:05:12;9.10;;;5.88;;
69789;SDS011;57064;52.046;4.800;2023-04-15T08:07:39;9.55;;;5.68;;
69789;SDS011;57064;52.046;4.800;2023-04-15T08:10:05;10.10;;;5.28;;
69789;SDS011;57064;52.046;4.800;2023-04-15T08:12:32;10.50;;;5.47;;
69789;SDS011;57064;52.046;4.800;2023-04-15T08:14:58;10.77;;;6.63;;
69789;SDS011;57064;52.046;4.800;2023-04-15T08:17:24;9.25;;;4.32;;
69789;SDS011;57064;52.046;4.800;2023-04-15T08:19:50;9.85;;;4.90;;
69789;SDS011;57064;52.046;4.800;2023-04-15T08:22:17;9.50;;;4.65;;
69789;SDS011;57064;52.046;4.800;2023-04-15T08:24:43;10.68;;;5.07;;
69789;SDS011;57064;52.046;4.800;2023-04-15T08:27:10;9.00;;;5.05;;
69789;SDS011;57064;52.046;4.800;2023-04-15T08:29:36;11.18;;;5.25;;
69789;SDS011;57064;52.046;4.800;2023-04-15T08:32:03;9.27;;;4.72;;
69789;SDS011;57064;52.046;4.800;2023-04-15T08:34:30;9.98;;;4.93;;
69789;SDS011;57064;52.046;4.800;2023-04-15T08:36:56;8.23;;;4.40;;
69789;SDS011;57064;52.046;4.800;2023-04-15T08:39:22;7.18;;;4.20;;
69789;SDS011;57064;52.046;4.800;2023-04-15T08:41:51;10.63;;;4.50;;
69789;SDS011;57064;52.046;4.800;2023-04-15T08:44:28;7.47;;;3.70;;
69789;SDS011;57064;52.046;4.800;2023-04-15T08:47:00;10.07;;;4.50;;
69789;SDS011;57064;52.046;4.800;2023-04-15T08:49:26;8.60;;;5.35;;
69789;SDS011;57064;52.046;4.800;2023-04-15T08:51:54;10.82;;;5.57;;
69789;SDS011;57064;52.046;4.800;2023-04-15T08:54:22;8.30;;;4.68;;
69789;SDS011;57064;52.046;4.800;2023-04-15T08:56:48;9.77;;;4.90;;
69789;SDS011;57064;52.046;4.800;2023-04-15T08:59:15;10.38;;;4.70;;
69789;SDS011;57064;52.046;4.800;2023-04-15T09:01:42;8.45;;;4.10;;
69789;SDS011;57064;52.046;4.800;2023-04-15T09:04:08;7.22;;;3.53;;
69789;SDS011;57064;52.046;4.800;2023-04-15T09:06:36;8.45;;;4.07;;
69789;SDS011;57064;52.046;4.800;2023-04-15T09:09:04;9.25;;;4.15;;
69789;SDS011;57064;52.046;4.800;2023-04-15T09:11:31;5.63;;;2.53;;
69789;SDS011;57064;52.046;4.800;2023-04-15T09:13:57;6.38;;;3.05;;
69789;SDS011;57064;52.046;4.800;2023-04-15T09:16:23;5.30;;;2.83;;
69789;SDS011;57064;52.046;4.800;2023-04-15T09:18:49;5.28;;;2.72;;
69789;SDS011;57064;52.046;4.800;2023-04-15T09:21:16;5.80;;;2.88;;
69789;SDS011;57064;52.046;4.800;2023-04-15T09:23:59;4.72;;;2.72;;
69789;SDS011;57064;52.046;4.800;2023-04-15T09:29:06;6.25;;;3.28;;
69789;SDS011;57064;52.046;4.800;2023-04-15T09:31:38;6.75;;;3.83;;
69789;SDS011;57064;52.046;4.800;2023-04-15T09:34:05;7.13;;;3.00;;
69789;SDS011;57064;52.046;4.800;2023-04-15T09:39:17;6.53;;;3.10;;
69789;SDS011;57064;52.046;4.800;2023-04-15T09:41:43;9.43;;;3.70;;
69789;SDS011;57064;52.046;4.800;2023-04-15T09:44:25;9.68;;;3.80;;
69789;SDS011;57064;52.046;4.800;2023-04-15T09:46:51;6.57;;;3.80;;
69789;SDS011;57064;52.046;4.800;2023-04-15T09:49:17;11.27;;;4.80;;
69789;SDS011;57064;52.046;4.800;2023-04-15T09:51:44;8.23;;;4.65;;
69789;SDS011;57064;52.046;4.800;2023-04-15T09:54:11;9.80;;;3.85;;
69789;SDS011;57064;52.046;4.800;2023-04-15T09:56:37;7.95;;;3.80;;
69789;SDS011;57064;52.046;4.800;2023-04-15T09:59:07;9.77;;;4.85;;
69789;SDS011;57064;52.046;4.800;2023-04-15T10:01:33;7.70;;;3.60;;
69789;SDS011;57064;52.046;4.800;2023-04-15T10:04:03;5.03;;;3.53;;
69789;SDS011;57064;52.046;4.800;2023-04-15T10:06:30;3.60;;;1.85;;
69789;SDS011;57064;52.046;4.800;2023-04-15T10:08:57;6.18;;;3.03;;
69789;SDS011;57064;52.046;4.800;2023-04-15T10:11:23;4.70;;;2.58;;
69789;SDS011;57064;52.046;4.800;2023-04-15T10:13:52;3.28;;;1.92;;
69789;SDS011;57064;52.046;4.800;2023-04-15T10:16:20;3.95;;;2.38;;
69789;SDS011;57064;52.046;4.800;2023-04-15T10:18:50;2.15;;;1.52;;
69789;SDS011;57064;52.046;4.800;2023-04-15T10:21:19;4.15;;;2.20;;
69789;SDS011;57064;52.046;4.800;2023-04-15T10:23:47;3.88;;;2.38;;
69789;SDS011;57064;52.046;4.800;2023-04-15T10:26:14;4.03;;;1.60;;
69789;SDS011;57064;52.046;4.800;2023-04-15T10:28:41;4.93;;;2.33;;
69789;SDS011;57064;52.046;4.800;2023-04-15T10:31:09;7.70;;;2.67;;
69789;SDS011;57064;52.046;4.800;2023-04-15T10:33:39;2.33;;;1.17;;
69789;SDS011;57064;52.046;4.800;2023-04-15T10:36:06;3.03;;;1.60;;
69789;SDS011;57064;52.046;4.800;2023-04-15T10:43:50;3.78;;;2.17;;
69789;SDS011;57064;52.046;4.800;2023-04-15T10:46:18;3.95;;;2.05;;
69789;SDS011;57064;52.046;4.800;2023-04-15T10:48:50;5.20;;;2.60;;
69789;SDS011;57064;52.046;4.800;2023-04-15T10:51:29;7.85;;;2.95;;
69789;SDS011;57064;52.046;4.800;2023-04-15T10:53:59;7.63;;;3.25;;
69789;SDS011;57064;52.046;4.800;2023-04-15T10:56:27;4.93;;;2.47;;
69789;SDS011;57064;52.046;4.800;2023-04-15T10:58:54;6.40;;;3.92;;
69789;SDS011;57064;52.046;4.800;2023-04-15T11:01:20;6.57;;;3.33;;
69789;SDS011;57064;52.046;4.800;2023-04-15T11:03:47;6.97;;;3.42;;
69789;SDS011;57064;52.046;4.800;2023-04-15T11:06:14;6.43;;;2.35;;
69789;SDS011;57064;52.046;4.800;2023-04-15T11:11:20;6.15;;;2.90;;
69789;SDS011;57064;52.046;4.800;2023-04-15T11:13:47;5.97;;;3.10;;
69789;SDS011;57064;52.046;4.800;2023-04-15T11:16:14;4.75;;;3.08;;
69789;SDS011;57064;52.046;4.800;2023-04-15T11:18:41;6.93;;;3.42;;
69789;SDS011;57064;52.046;4.800;2023-04-15T11:21:17;5.32;;;2.67;;
69789;SDS011;57064;52.046;4.800;2023-04-15T11:23:43;5.88;;;3.55;;
69789;SDS011;57064;52.046;4.800;2023-04-15T11:26:12;4.47;;;2.47;;
69789;SDS011;57064;52.046;4.800;2023-04-15T11:28:40;8.10;;;3.70;;
69789;SDS011;57064;52.046;4.800;2023-04-15T11:31:08;6.57;;;3.55;;
69789;SDS011;57064;52.046;4.800;2023-04-15T11:33:36;5.30;;;2.08;;
69789;SDS011;57064;52.046;4.800;2023-04-15T11:36:08;8.55;;;3.25;;
69789;SDS011;57064;52.046;4.800;2023-04-15T11:38:35;7.10;;;2.80;;
69789;SDS011;57064;52.046;4.800;2023-04-15T11:41:02;10.70;;;3.17;;
69789;SDS011;57064;52.046;4.800;2023-04-15T11:43:28;7.00;;;3.67;;
69789;SDS011;57064;52.046;4.800;2023-04-15T11:45:58;5.60;;;2.80;;
69789;SDS011;57064;52.046;4.800;2023-04-15T11:48:29;4.10;;;2.60;;
69789;SDS011;57064;52.046;4.800;2023-04-15T11:51:00;7.70;;;3.13;;
69789;SDS011;57064;52.046;4.800;2023-04-15T11:53:47;5.03;;;2.67;;
69789;SDS011;57064;52.046;4.800;2023-04-15T11:56:18;5.00;;;2.22;;
69789;SDS011;57064;52.046;4.800;2023-04-15T11:58:46;4.05;;;2.30;;
69789;SDS011;57064;52.046;4.800;2023-04-15T12:01:14;3.88;;;2.28;;
69789;SDS011;57064;52.046;4.800;2023-04-15T12:03:44;4.65;;;2.05;;
69789;SDS011;57064;52.046;4.800;2023-04-15T12:11:19;4.93;;;2.30;;
69789;SDS011;57064;52.046;4.800;2023-04-15T12:16:33;6.53;;;2.70;;
69789;SDS011;57064;52.046;4.800;2023-04-15T12:19:04;4.55;;;1.92;;
69789;SDS011;57064;52.046;4.800;2023-04-15T12:21:34;6.00;;;2.45;;
69789;SDS011;57064;52.046;4.800;2023-04-15T12:24:02;6.25;;;2.42;;
69789;SDS011;57064;52.046;4.800;2023-04-15T12:26:36;4.72;;;2.92;;
69789;SDS011;57064;52.046;4.800;2023-04-15T12:29:10;5.53;;;2.53;;
69789;SDS011;57064;52.046;4.800;2023-04-15T12:31:47;4.65;;;2.13;;
69789;SDS011;57064;52.046;4.800;2023-04-15T12:34:40;5.10;;;2.45;;
69789;SDS011;57064;52.046;4.800;2023-04-15T12:37:16;4.85;;;2.42;;
69789;SDS011;57064;52.046;4.800;2023-04-15T12:39:43;3.05;;;1.75;;
69789;SDS011;57064;52.046;4.800;2023-04-15T12:42:13;4.28;;;2.00;;
69789;SDS011;57064;52.046;4.800;2023-04-15T12:44:40;5.32;;;2.10;;
69789;SDS011;57064;52.046;4.800;2023-04-15T12:47:07;3.20;;;1.80;;
69789;SDS011;57064;52.046;4.800;2023-04-15T12:49:34;4.20;;;2.03;;
69789;SDS011;57064;52.046;4.800;2023-04-15T12:52:01;2.33;;;1.10;;
69789;SDS011;57064;52.046;4.800;2023-04-15T12:54:28;3.50;;;1.80;;
69789;SDS011;57064;52.046;4.800;2023-04-15T12:56:55;5.70;;;1.75;;
69789;SDS011;57064;52.046;4.800;2023-04-15T12:59:22;4.43;;;1.63;;
69789;SDS011;57064;52.046;4.800;2023-04-15T13:01:48;2.00;;;1.10;;
69789;SDS011;57064;52.046;4.800;2023-04-15T13:04:16;2.53;;;1.60;;
69789;SDS011;57064;52.046;4.800;2023-04-15T13:06:42;3.53;;;1.38;;
69789;SDS011;57064;52.046;4.800;2023-04-15T13:09:08;3.15;;;1.20;;
69789;SDS011;57064;52.046;4.800;2023-04-15T13:11:35;2.95;;;1.30;;
69789;SDS011;57064;52.046;4.800;2023-04-15T13:14:04;1.73;;;1.10;;
69789;SDS011;57064;52.046;4.800;2023-04-15T13:16:32;2.60;;;1.20;;
69789;SDS011;57064;52.046;4.800;2023-04-15T13:18:59;3.00;;;1.48;;
69789;SDS011;57064;52.046;4.800;2023-04-15T13:21:26;2.47;;;1.33;;
69789;SDS011;57064;52.046;4.800;2023-04-15T13:23:52;6.10;;;1.50;;
69789;SDS011;57064;52.046;4.800;2023-04-15T13:26:18;2.40;;;1.30;;
69789;SDS011;57064;52.046;4.800;2023-04-15T13:28:45;2.30;;;1.58;;
69789;SDS011;57064;52.046;4.800;2023-04-15T13:31:11;2.65;;;1.15;;
69789;SDS011;57064;52.046;4.800;2023-04-15T13:33:37;3.83;;;1.33;;
69789;SDS011;57064;52.046;4.800;2023-04-15T13:36:03;9.38;;;1.63;;
69789;SDS011;57064;52.046;4.800;2023-04-15T13:38:30;4.00;;;1.40;;
69789;SDS011;57064;52.046;4.800;2023-04-15T13:40:56;2.75;;;0.95;;
69789;SDS011;57064;52.046;4.800;2023-04-15T13:43:22;2.00;;;1.27;;
69789;SDS011;57064;52.046;4.800;2023-04-15T13:45:48;2.58;;;1.33;;
69789;SDS011;57064;52.046;4.800;2023-04-15T13:48:14;5.05;;;1.13;;
69789;SDS011;57064;52.046;4.800;2023-04-15T13:50:40;5.85;;;1.58;;
69789;SDS011;57064;52.046;4.800;2023-04-15T13:53:09;2.03;;;0.63;;
69789;SDS011;57064;52.046;4.800;2023-04-15T13:55:36;3.33;;;1.38;;
69789;SDS011;57064;52.046;4.800;2023-04-15T13:58:05;2.78;;;1.75;;
69789;SDS011;57064;52.046;4.800;2023-04-15T14:00:32;4.05;;;1.27;;
69789;SDS011;57064;52.046;4.800;2023-04-15T14:02:58;4.05;;;0.90;;
69789;SDS011;57064;52.046;4.800;2023-04-15T14:05:24;2.00;;;1.15;;
69789;SDS011;57064;52.046;4.800;2023-04-15T14:07:50;2.78;;;0.90;;
69789;SDS011;57064;52.046;4.800;2023-04-15T14:10:16;1.75;;;0.75;;
69789;SDS011;57064;52.046;4.800;2023-04-15T14:12:42;1.48;;;0.55;;
69789;SDS011;57064;52.046;4.800;2023-04-15T14:15:08;1.00;;;0.50;;
69789;SDS011;57064;52.046;4.800;2023-04-15T14:17:34;2.75;;;0.80;;
69789;SDS011;57064;52.046;4.800;2023-04-15T14:20:01;1.35;;;0.73;;
69789;SDS011;57064;52.046;4.800;2023-04-15T14:22:27;2.53;;;0.98;;
69789;SDS011;57064;52.046;4.800;2023-04-15T14:24:53;1.80;;;0.70;;
69789;SDS011;57064;52.046;4.800;2023-04-15T14:27:19;3.70;;;1.13;;
69789;SDS011;57064;52.046;4.800;2023-04-15T14:29:45;3.00;;;0.80;;
69789;SDS011;57064;52.046;4.800;2023-04-15T14:32:12;5.55;;;0.90;;
69789;SDS011;57064;52.046;4.800;2023-04-15T14:34:38;0.95;;;0.63;;
69789;SDS011;57064;52.046;4.800;2023-04-15T14:37:04;5.10;;;0.98;;
69789;SDS011;57064;52.046;4.800;2023-04-15T14:39:30;1.67;;;0.80;;
69789;SDS011;57064;52.046;4.800;2023-04-15T14:41:57;1.33;;;0.60;;
69789;SDS011;57064;52.046;4.800;2023-04-15T14:44:23;1.17;;;0.60;;
69789;SDS011;57064;52.046;4.800;2023-04-15T14:46:49;1.45;;;0.63;;
69789;SDS011;57064;52.046;4.800;2023-04-15T14:49:16;1.55;;;0.50;;
69789;SDS011;57064;52.046;4.800;2023-04-15T14:51:42;2.47;;;0.70;;
69789;SDS011;57064;52.046;4.800;2023-04-15T14:54:08;5.20;;;0.75;;
69789;SDS011;57064;52.046;4.800;2023-04-15T14:56:34;2.95;;;0.90;;
69789;SDS011;57064;52.046;4.800;2023-04-15T14:59:00;1.35;;;0.70;;
69789;SDS011;57064;52.046;4.800;2023-04-15T15:01:26;5.22;;;1.00;;